sensor_id;sensor_type;location;lat;lon;timestamp;P1;durP1;ratioP1;P2;durP2;ratioP2
42724;SDS011;28369;44.046;23.014;2023-05-29T00:00:50;19.73;;;8.65;;
42724;SDS011;28369;44.046;23.014;2023-05-29T00:03:17;19.17;;;9.82;;
42724;SDS011;28369;44.046;23.014;2023-05-29T00:05:42;14.77;;;9.32;;
42724;SDS011;28369;44.046;23.014;2023-05-29T00:08:08;19.67;;;9.57;;
42724;SDS011;28369;44.046;23.014;2023-05-29T00:10:33;17.55;;;9.85;;
42724;SDS011;28369;44.046;23.014;2023-05-29T00:13:00;27.38;;;9.65;;
42724;SDS011;28369;44.046;23.014;2023-05-29T00:15:26;22.77;;;9.25;;
42724;SDS011;28369;44.046;23.014;2023-05-29T00:17:52;27.60;;;10.32;;
42724;SDS011;28369;44.046;23.014;2023-05-29T00:20:17;25.63;;;9.23;;
42724;SDS011;28369;44.046;23.014;2023-05-29T00:22:43;26.90;;;9.77;;
42724;SDS011;28369;44.046;23.014;2023-05-29T00:25:09;26.30;;;9.98;;
42724;SDS011;28369;44.046;23.014;2023-05-29T00:27:34;31.02;;;10.15;;
42724;SDS011;28369;44.046;23.014;2023-05-29T00:30:01;22.98;;;10.48;;
42724;SDS011;28369;44.046;23.014;2023-05-29T00:32:27;28.83;;;11.40;;
42724;SDS011;28369;44.046;23.014;2023-05-29T00:34:53;26.42;;;11.35;;
42724;SDS011;28369;44.046;23.014;2023-05-29T00:37:20;32.10;;;10.05;;
42724;SDS011;28369;44.046;23.014;2023-05-29T00:39:47;23.17;;;10.32;;
42724;SDS011;28369;44.046;23.014;2023-05-29T00:42:13;29.05;;;10.05;;
42724;SDS011;28369;44.046;23.014;2023-05-29T00:44:38;25.15;;;9.43;;
42724;SDS011;28369;44.046;23.014;2023-05-29T00:47:03;26.35;;;9.60;;
42724;SDS011;28369;44.046;23.014;2023-05-29T00:49:29;18.58;;;9.45;;
42724;SDS011;28369;44.046;23.014;2023-05-29T00:51:55;20.77;;;9.07;;
42724;SDS011;28369;44.046;23.014;2023-05-29T00:54:21;28.67;;;9.70;;
42724;SDS011;28369;44.046;23.014;2023-05-29T00:56:51;22.17;;;9.10;;
42724;SDS011;28369;44.046;23.014;2023-05-29T00:59:17;19.50;;;8.80;;
42724;SDS011;28369;44.046;23.014;2023-05-29T01:01:46;16.98;;;9.32;;
42724;SDS011;28369;44.046;23.014;2023-05-29T01:04:13;21.48;;;9.13;;
42724;SDS011;28369;44.046;23.014;2023-05-29T01:06:40;23.60;;;9.07;;
42724;SDS011;28369;44.046;23.014;2023-05-29T01:09:06;25.10;;;9.55;;
42724;SDS011;28369;44.046;23.014;2023-05-29T01:14:08;18.45;;;9.00;;
42724;SDS011;28369;44.046;23.014;2023-05-29T01:16:42;17.88;;;9.50;;
42724;SDS011;28369;44.046;23.014;2023-05-29T01:27:20;24.48;;;9.60;;
42724;SDS011;28369;44.046;23.014;2023-05-29T01:29:50;26.10;;;9.93;;
42724;SDS011;28369;44.046;23.014;2023-05-29T01:32:20;20.92;;;9.80;;
42724;SDS011;28369;44.046;23.014;2023-05-29T01:34:46;19.70;;;9.27;;
42724;SDS011;28369;44.046;23.014;2023-05-29T01:37:12;29.17;;;9.85;;
42724;SDS011;28369;44.046;23.014;2023-05-29T01:39:38;26.80;;;9.32;;
42724;SDS011;28369;44.046;23.014;2023-05-29T01:42:03;21.80;;;9.43;;
42724;SDS011;28369;44.046;23.014;2023-05-29T01:44:30;19.85;;;9.32;;
42724;SDS011;28369;44.046;23.014;2023-05-29T01:46:56;22.70;;;9.43;;
42724;SDS011;28369;44.046;23.014;2023-05-29T01:49:25;24.70;;;9.75;;
42724;SDS011;28369;44.046;23.014;2023-05-29T01:51:53;33.92;;;9.60;;
42724;SDS011;28369;44.046;23.014;2023-05-29T01:54:18;32.25;;;9.80;;
42724;SDS011;28369;44.046;23.014;2023-05-29T01:56:44;32.75;;;11.10;;
42724;SDS011;28369;44.046;23.014;2023-05-29T01:59:11;24.08;;;10.13;;
42724;SDS011;28369;44.046;23.014;2023-05-29T02:01:40;26.23;;;9.77;;
42724;SDS011;28369;44.046;23.014;2023-05-29T02:04:06;21.58;;;9.55;;
42724;SDS011;28369;44.046;23.014;2023-05-29T02:06:32;21.05;;;9.43;;
42724;SDS011;28369;44.046;23.014;2023-05-29T02:08:58;30.67;;;9.63;;
42724;SDS011;28369;44.046;23.014;2023-05-29T02:11:24;30.13;;;9.27;;
42724;SDS011;28369;44.046;23.014;2023-05-29T02:13:51;17.77;;;9.85;;
42724;SDS011;28369;44.046;23.014;2023-05-29T02:16:17;20.25;;;8.95;;
42724;SDS011;28369;44.046;23.014;2023-05-29T02:18:45;15.07;;;8.65;;
42724;SDS011;28369;44.046;23.014;2023-05-29T02:21:11;35.13;;;10.45;;
42724;SDS011;28369;44.046;23.014;2023-05-29T02:23:36;27.75;;;9.18;;
42724;SDS011;28369;44.046;23.014;2023-05-29T02:26:05;29.40;;;9.68;;
42724;SDS011;28369;44.046;23.014;2023-05-29T02:28:30;15.88;;;8.77;;
42724;SDS011;28369;44.046;23.014;2023-05-29T02:30:56;16.60;;;9.93;;
42724;SDS011;28369;44.046;23.014;2023-05-29T02:33:21;22.83;;;9.27;;
42724;SDS011;28369;44.046;23.014;2023-05-29T02:35:47;29.00;;;9.23;;
42724;SDS011;28369;44.046;23.014;2023-05-29T02:38:13;26.00;;;9.30;;
42724;SDS011;28369;44.046;23.014;2023-05-29T02:40:38;36.92;;;9.48;;
42724;SDS011;28369;44.046;23.014;2023-05-29T02:43:05;25.25;;;9.25;;
42724;SDS011;28369;44.046;23.014;2023-05-29T02:45:31;32.50;;;11.00;;
42724;SDS011;28369;44.046;23.014;2023-05-29T02:47:56;33.53;;;9.70;;
42724;SDS011;28369;44.046;23.014;2023-05-29T02:50:22;30.38;;;11.07;;
42724;SDS011;28369;44.046;23.014;2023-05-29T02:52:47;29.80;;;10.73;;
42724;SDS011;28369;44.046;23.014;2023-05-29T02:55:13;32.80;;;11.15;;
42724;SDS011;28369;44.046;23.014;2023-05-29T02:57:38;31.35;;;10.45;;
42724;SDS011;28369;44.046;23.014;2023-05-29T03:00:04;24.80;;;10.13;;
42724;SDS011;28369;44.046;23.014;2023-05-29T03:02:31;38.55;;;10.50;;
42724;SDS011;28369;44.046;23.014;2023-05-29T03:04:57;28.00;;;10.48;;
42724;SDS011;28369;44.046;23.014;2023-05-29T03:07:25;44.65;;;11.43;;
42724;SDS011;28369;44.046;23.014;2023-05-29T03:09:51;40.00;;;12.43;;
42724;SDS011;28369;44.046;23.014;2023-05-29T03:12:17;27.52;;;10.55;;
42724;SDS011;28369;44.046;23.014;2023-05-29T03:14:44;33.83;;;10.35;;
42724;SDS011;28369;44.046;23.014;2023-05-29T03:17:09;36.80;;;11.40;;
42724;SDS011;28369;44.046;23.014;2023-05-29T03:19:35;39.72;;;11.77;;
42724;SDS011;28369;44.046;23.014;2023-05-29T03:22:03;40.15;;;10.93;;
42724;SDS011;28369;44.046;23.014;2023-05-29T03:24:29;32.13;;;10.38;;
42724;SDS011;28369;44.046;23.014;2023-05-29T03:26:54;22.10;;;10.15;;
42724;SDS011;28369;44.046;23.014;2023-05-29T03:29:21;29.60;;;10.65;;
42724;SDS011;28369;44.046;23.014;2023-05-29T03:31:47;24.02;;;9.55;;
42724;SDS011;28369;44.046;23.014;2023-05-29T03:34:12;22.58;;;9.32;;
42724;SDS011;28369;44.046;23.014;2023-05-29T03:36:41;23.88;;;9.45;;
42724;SDS011;28369;44.046;23.014;2023-05-29T03:39:07;21.40;;;9.23;;
42724;SDS011;28369;44.046;23.014;2023-05-29T03:41:33;25.00;;;10.13;;
42724;SDS011;28369;44.046;23.014;2023-05-29T03:43:58;30.38;;;9.85;;
42724;SDS011;28369;44.046;23.014;2023-05-29T03:46:24;23.17;;;9.55;;
42724;SDS011;28369;44.046;23.014;2023-05-29T03:48:49;33.58;;;8.82;;
42724;SDS011;28369;44.046;23.014;2023-05-29T03:51:15;21.67;;;7.88;;
42724;SDS011;28369;44.046;23.014;2023-05-29T03:53:41;18.50;;;7.50;;
42724;SDS011;28369;44.046;23.014;2023-05-29T03:56:06;23.08;;;7.65;;
42724;SDS011;28369;44.046;23.014;2023-05-29T03:58:32;22.77;;;7.35;;
42724;SDS011;28369;44.046;23.014;2023-05-29T04:00:57;23.33;;;7.18;;
42724;SDS011;28369;44.046;23.014;2023-05-29T04:03:23;25.60;;;6.88;;
42724;SDS011;28369;44.046;23.014;2023-05-29T04:05:48;31.27;;;7.40;;
42724;SDS011;28369;44.046;23.014;2023-05-29T04:08:14;19.15;;;6.72;;
42724;SDS011;28369;44.046;23.014;2023-05-29T04:10:39;19.17;;;6.40;;
42724;SDS011;28369;44.046;23.014;2023-05-29T04:13:05;21.02;;;7.53;;
42724;SDS011;28369;44.046;23.014;2023-05-29T04:15:33;27.60;;;8.55;;
42724;SDS011;28369;44.046;23.014;2023-05-29T04:17:59;23.73;;;7.28;;
42724;SDS011;28369;44.046;23.014;2023-05-29T04:20:25;20.27;;;7.28;;
42724;SDS011;28369;44.046;23.014;2023-05-29T04:22:51;25.63;;;8.45;;
42724;SDS011;28369;44.046;23.014;2023-05-29T04:25:17;24.77;;;7.82;;
42724;SDS011;28369;44.046;23.014;2023-05-29T04:27:43;28.17;;;8.07;;
42724;SDS011;28369;44.046;23.014;2023-05-29T04:30:13;15.77;;;8.48;;
42724;SDS011;28369;44.046;23.014;2023-05-29T04:32:40;18.85;;;7.70;;
42724;SDS011;28369;44.046;23.014;2023-05-29T04:35:06;19.30;;;8.13;;
42724;SDS011;28369;44.046;23.014;2023-05-29T04:37:32;24.23;;;9.05;;
42724;SDS011;28369;44.046;23.014;2023-05-29T04:40:03;28.83;;;9.27;;
42724;SDS011;28369;44.046;23.014;2023-05-29T04:42:35;22.30;;;8.13;;
42724;SDS011;28369;44.046;23.014;2023-05-29T04:45:02;24.33;;;9.05;;
42724;SDS011;28369;44.046;23.014;2023-05-29T04:47:30;18.08;;;7.60;;
42724;SDS011;28369;44.046;23.014;2023-05-29T04:49:58;16.42;;;7.18;;
42724;SDS011;28369;44.046;23.014;2023-05-29T04:52:24;15.48;;;8.07;;
42724;SDS011;28369;44.046;23.014;2023-05-29T04:54:50;17.42;;;7.57;;
42724;SDS011;28369;44.046;23.014;2023-05-29T04:57:16;18.40;;;7.00;;
42724;SDS011;28369;44.046;23.014;2023-05-29T04:59:41;16.23;;;6.90;;
42724;SDS011;28369;44.046;23.014;2023-05-29T05:02:07;17.17;;;6.85;;
42724;SDS011;28369;44.046;23.014;2023-05-29T05:04:32;15.75;;;6.15;;
42724;SDS011;28369;44.046;23.014;2023-05-29T05:06:58;19.40;;;7.50;;
42724;SDS011;28369;44.046;23.014;2023-05-29T05:09:23;20.33;;;7.63;;
42724;SDS011;28369;44.046;23.014;2023-05-29T05:11:49;12.43;;;6.80;;
42724;SDS011;28369;44.046;23.014;2023-05-29T05:14:15;13.15;;;6.50;;
42724;SDS011;28369;44.046;23.014;2023-05-29T05:16:40;15.70;;;6.53;;
42724;SDS011;28369;44.046;23.014;2023-05-29T05:19:06;12.40;;;5.90;;
42724;SDS011;28369;44.046;23.014;2023-05-29T05:21:32;11.75;;;6.22;;
42724;SDS011;28369;44.046;23.014;2023-05-29T05:23:57;9.43;;;5.50;;
42724;SDS011;28369;44.046;23.014;2023-05-29T05:26:23;13.13;;;5.60;;
42724;SDS011;28369;44.046;23.014;2023-05-29T05:28:49;13.55;;;5.82;;
42724;SDS011;28369;44.046;23.014;2023-05-29T05:31:14;11.70;;;5.53;;
42724;SDS011;28369;44.046;23.014;2023-05-29T05:33:40;13.20;;;5.95;;
42724;SDS011;28369;44.046;23.014;2023-05-29T05:36:05;9.68;;;5.53;;
42724;SDS011;28369;44.046;23.014;2023-05-29T05:38:31;10.88;;;5.63;;
42724;SDS011;28369;44.046;23.014;2023-05-29T05:40:57;17.15;;;6.40;;
42724;SDS011;28369;44.046;23.014;2023-05-29T05:43:23;14.20;;;6.43;;
42724;SDS011;28369;44.046;23.014;2023-05-29T05:45:48;13.32;;;6.25;;
42724;SDS011;28369;44.046;23.014;2023-05-29T05:48:14;9.77;;;5.97;;
42724;SDS011;28369;44.046;23.014;2023-05-29T05:50:39;15.35;;;6.82;;
42724;SDS011;28369;44.046;23.014;2023-05-29T05:53:05;9.50;;;5.95;;
42724;SDS011;28369;44.046;23.014;2023-05-29T05:55:30;12.52;;;6.35;;
42724;SDS011;28369;44.046;23.014;2023-05-29T05:57:56;13.70;;;5.90;;
42724;SDS011;28369;44.046;23.014;2023-05-29T06:00:22;13.02;;;6.30;;
42724;SDS011;28369;44.046;23.014;2023-05-29T06:02:51;14.82;;;6.15;;
42724;SDS011;28369;44.046;23.014;2023-05-29T06:05:17;11.02;;;6.78;;
42724;SDS011;28369;44.046;23.014;2023-05-29T06:07:43;10.38;;;5.60;;
42724;SDS011;28369;44.046;23.014;2023-05-29T06:10:11;12.60;;;7.18;;
42724;SDS011;28369;44.046;23.014;2023-05-29T06:12:36;15.85;;;8.85;;
42724;SDS011;28369;44.046;23.014;2023-05-29T06:15:05;14.48;;;8.57;;
42724;SDS011;28369;44.046;23.014;2023-05-29T06:17:32;11.63;;;8.13;;
42724;SDS011;28369;44.046;23.014;2023-05-29T06:20:00;15.20;;;7.38;;
42724;SDS011;28369;44.046;23.014;2023-05-29T06:22:25;10.65;;;6.28;;
42724;SDS011;28369;44.046;23.014;2023-05-29T06:24:51;13.70;;;6.93;;
42724;SDS011;28369;44.046;23.014;2023-05-29T06:27:16;11.35;;;6.50;;
42724;SDS011;28369;44.046;23.014;2023-05-29T06:29:43;15.93;;;6.88;;
42724;SDS011;28369;44.046;23.014;2023-05-29T06:32:08;16.55;;;6.65;;
42724;SDS011;28369;44.046;23.014;2023-05-29T06:34:34;12.18;;;7.15;;
42724;SDS011;28369;44.046;23.014;2023-05-29T06:36:59;13.57;;;6.68;;
42724;SDS011;28369;44.046;23.014;2023-05-29T06:39:25;9.13;;;6.43;;
42724;SDS011;28369;44.046;23.014;2023-05-29T06:41:50;17.27;;;7.80;;
42724;SDS011;28369;44.046;23.014;2023-05-29T06:44:16;18.55;;;7.78;;
42724;SDS011;28369;44.046;23.014;2023-05-29T06:46:41;16.95;;;7.28;;
42724;SDS011;28369;44.046;23.014;2023-05-29T06:49:07;15.77;;;7.85;;
42724;SDS011;28369;44.046;23.014;2023-05-29T06:51:33;11.55;;;7.43;;
42724;SDS011;28369;44.046;23.014;2023-05-29T06:53:58;13.68;;;7.72;;
42724;SDS011;28369;44.046;23.014;2023-05-29T06:56:24;16.95;;;7.72;;
42724;SDS011;28369;44.046;23.014;2023-05-29T06:58:51;13.70;;;7.18;;
42724;SDS011;28369;44.046;23.014;2023-05-29T07:01:16;11.70;;;7.15;;
42724;SDS011;28369;44.046;23.014;2023-05-29T07:03:42;18.75;;;7.95;;
42724;SDS011;28369;44.046;23.014;2023-05-29T07:06:08;13.45;;;7.80;;
42724;SDS011;28369;44.046;23.014;2023-05-29T07:08:33;13.93;;;7.93;;
42724;SDS011;28369;44.046;23.014;2023-05-29T07:10:59;13.93;;;8.32;;
42724;SDS011;28369;44.046;23.014;2023-05-29T07:13:25;10.25;;;7.40;;
42724;SDS011;28369;44.046;23.014;2023-05-29T07:15:52;15.05;;;7.65;;
42724;SDS011;28369;44.046;23.014;2023-05-29T07:18:17;15.32;;;7.95;;
42724;SDS011;28369;44.046;23.014;2023-05-29T07:20:42;12.75;;;7.63;;
42724;SDS011;28369;44.046;23.014;2023-05-29T07:23:08;14.43;;;7.85;;
42724;SDS011;28369;44.046;23.014;2023-05-29T07:25:33;10.63;;;6.90;;
42724;SDS011;28369;44.046;23.014;2023-05-29T07:27:59;11.05;;;7.47;;
42724;SDS011;28369;44.046;23.014;2023-05-29T07:30:24;11.20;;;7.20;;
42724;SDS011;28369;44.046;23.014;2023-05-29T07:32:50;11.35;;;7.32;;
42724;SDS011;28369;44.046;23.014;2023-05-29T07:35:15;11.27;;;6.90;;
42724;SDS011;28369;44.046;23.014;2023-05-29T07:37:41;14.90;;;7.20;;
42724;SDS011;28369;44.046;23.014;2023-05-29T07:40:06;14.60;;;7.65;;
42724;SDS011;28369;44.046;23.014;2023-05-29T07:42:35;11.18;;;6.63;;
42724;SDS011;28369;44.046;23.014;2023-05-29T07:45:00;11.63;;;5.90;;
42724;SDS011;28369;44.046;23.014;2023-05-29T07:47:26;12.23;;;6.38;;
42724;SDS011;28369;44.046;23.014;2023-05-29T07:49:51;10.25;;;6.35;;
42724;SDS011;28369;44.046;23.014;2023-05-29T07:52:17;12.85;;;5.72;;
42724;SDS011;28369;44.046;23.014;2023-05-29T07:54:44;8.75;;;5.32;;
42724;SDS011;28369;44.046;23.014;2023-05-29T07:57:09;11.52;;;6.38;;
42724;SDS011;28369;44.046;23.014;2023-05-29T07:59:35;9.82;;;6.18;;
42724;SDS011;28369;44.046;23.014;2023-05-29T08:02:01;11.52;;;5.50;;
42724;SDS011;28369;44.046;23.014;2023-05-29T08:04:30;9.98;;;5.70;;
42724;SDS011;28369;44.046;23.014;2023-05-29T08:06:56;7.75;;;5.70;;
42724;SDS011;28369;44.046;23.014;2023-05-29T08:09:21;13.35;;;6.40;;
42724;SDS011;28369;44.046;23.014;2023-05-29T08:11:47;12.13;;;6.30;;
42724;SDS011;28369;44.046;23.014;2023-05-29T08:14:16;6.80;;;6.10;;
42724;SDS011;28369;44.046;23.014;2023-05-29T08:16:41;9.57;;;5.70;;
42724;SDS011;28369;44.046;23.014;2023-05-29T08:19:07;8.45;;;5.55;;
42724;SDS011;28369;44.046;23.014;2023-05-29T08:21:33;13.13;;;6.40;;
42724;SDS011;28369;44.046;23.014;2023-05-29T08:23:59;10.68;;;6.03;;
42724;SDS011;28369;44.046;23.014;2023-05-29T08:26:24;8.93;;;5.85;;
42724;SDS011;28369;44.046;23.014;2023-05-29T08:28:50;9.50;;;5.18;;
42724;SDS011;28369;44.046;23.014;2023-05-29T08:31:16;6.50;;;5.32;;
42724;SDS011;28369;44.046;23.014;2023-05-29T08:33:42;10.27;;;5.95;;
42724;SDS011;28369;44.046;23.014;2023-05-29T08:36:07;5.93;;;4.75;;
42724;SDS011;28369;44.046;23.014;2023-05-29T08:38:35;8.07;;;5.18;;
42724;SDS011;28369;44.046;23.014;2023-05-29T08:41:01;9.13;;;5.55;;
42724;SDS011;28369;44.046;23.014;2023-05-29T08:43:31;9.88;;;5.63;;
42724;SDS011;28369;44.046;23.014;2023-05-29T08:46:01;8.00;;;5.70;;
42724;SDS011;28369;44.046;23.014;2023-05-29T08:48:28;7.93;;;5.47;;
42724;SDS011;28369;44.046;23.014;2023-05-29T08:50:56;8.25;;;5.32;;
42724;SDS011;28369;44.046;23.014;2023-05-29T08:53:23;9.07;;;5.30;;
42724;SDS011;28369;44.046;23.014;2023-05-29T08:55:50;7.45;;;4.68;;
42724;SDS011;28369;44.046;23.014;2023-05-29T08:58:18;6.45;;;4.95;;
42724;SDS011;28369;44.046;23.014;2023-05-29T09:00:46;9.35;;;4.97;;
42724;SDS011;28369;44.046;23.014;2023-05-29T09:03:12;10.20;;;5.13;;
42724;SDS011;28369;44.046;23.014;2023-05-29T09:05:41;5.90;;;5.30;;
42724;SDS011;28369;44.046;23.014;2023-05-29T09:08:10;12.07;;;4.60;;
42724;SDS011;28369;44.046;23.014;2023-05-29T09:10:43;10.57;;;5.43;;
42724;SDS011;28369;44.046;23.014;2023-05-29T09:13:13;8.82;;;4.70;;
42724;SDS011;28369;44.046;23.014;2023-05-29T09:15:39;7.35;;;4.45;;
42724;SDS011;28369;44.046;23.014;2023-05-29T09:18:08;5.50;;;4.63;;
42724;SDS011;28369;44.046;23.014;2023-05-29T09:20:33;8.75;;;4.35;;
42724;SDS011;28369;44.046;23.014;2023-05-29T09:23:00;9.20;;;5.15;;
42724;SDS011;28369;44.046;23.014;2023-05-29T09:25:28;9.82;;;5.30;;
42724;SDS011;28369;44.046;23.014;2023-05-29T09:33:09;7.75;;;4.63;;
42724;SDS011;28369;44.046;23.014;2023-05-29T09:35:45;4.75;;;3.47;;
42724;SDS011;28369;44.046;23.014;2023-05-29T09:38:12;4.97;;;4.05;;
42724;SDS011;28369;44.046;23.014;2023-05-29T09:45:40;6.57;;;4.20;;
42724;SDS011;28369;44.046;23.014;2023-05-29T09:48:07;6.68;;;4.75;;
42724;SDS011;28369;44.046;23.014;2023-05-29T09:50:36;6.60;;;4.07;;
42724;SDS011;28369;44.046;23.014;2023-05-29T09:53:02;7.50;;;4.43;;
42724;SDS011;28369;44.046;23.014;2023-05-29T09:55:28;7.72;;;4.80;;
42724;SDS011;28369;44.046;23.014;2023-05-29T09:57:56;5.47;;;4.75;;
42724;SDS011;28369;44.046;23.014;2023-05-29T10:00:23;4.85;;;4.45;;
42724;SDS011;28369;44.046;23.014;2023-05-29T10:02:50;7.05;;;4.38;;
42724;SDS011;28369;44.046;23.014;2023-05-29T10:05:16;11.80;;;4.38;;
42724;SDS011;28369;44.046;23.014;2023-05-29T10:07:43;7.20;;;4.32;;
42724;SDS011;28369;44.046;23.014;2023-05-29T10:10:14;4.38;;;3.58;;
42724;SDS011;28369;44.046;23.014;2023-05-29T10:12:44;5.03;;;3.58;;
42724;SDS011;28369;44.046;23.014;2023-05-29T10:15:13;6.22;;;3.75;;
42724;SDS011;28369;44.046;23.014;2023-05-29T10:17:49;4.32;;;3.78;;
42724;SDS011;28369;44.046;23.014;2023-05-29T10:20:22;6.75;;;3.67;;
42724;SDS011;28369;44.046;23.014;2023-05-29T10:22:50;6.13;;;3.80;;
42724;SDS011;28369;44.046;23.014;2023-05-29T10:25:18;6.72;;;3.50;;
42724;SDS011;28369;44.046;23.014;2023-05-29T10:27:46;6.00;;;3.92;;
42724;SDS011;28369;44.046;23.014;2023-05-29T10:30:24;6.72;;;4.20;;
42724;SDS011;28369;44.046;23.014;2023-05-29T10:35:46;5.10;;;3.58;;
42724;SDS011;28369;44.046;23.014;2023-05-29T10:38:32;4.95;;;3.78;;
42724;SDS011;28369;44.046;23.014;2023-05-29T10:43:58;9.18;;;4.00;;
42724;SDS011;28369;44.046;23.014;2023-05-29T10:49:22;4.03;;;3.63;;
42724;SDS011;28369;44.046;23.014;2023-05-29T10:51:47;4.65;;;3.70;;
42724;SDS011;28369;44.046;23.014;2023-05-29T10:54:13;6.78;;;3.83;;
42724;SDS011;28369;44.046;23.014;2023-05-29T10:56:39;4.57;;;3.10;;
42724;SDS011;28369;44.046;23.014;2023-05-29T10:59:07;6.43;;;3.67;;
42724;SDS011;28369;44.046;23.014;2023-05-29T11:01:33;9.07;;;3.75;;
42724;SDS011;28369;44.046;23.014;2023-05-29T11:06:42;7.78;;;3.60;;
42724;SDS011;28369;44.046;23.014;2023-05-29T11:12:15;7.88;;;3.90;;
42724;SDS011;28369;44.046;23.014;2023-05-29T11:15:16;5.93;;;3.72;;
42724;SDS011;28369;44.046;23.014;2023-05-29T11:17:45;8.63;;;3.88;;
42724;SDS011;28369;44.046;23.014;2023-05-29T11:22:53;5.55;;;3.70;;
42724;SDS011;28369;44.046;23.014;2023-05-29T11:25:26;4.68;;;3.55;;
42724;SDS011;28369;44.046;23.014;2023-05-29T11:27:52;5.78;;;3.80;;
42724;SDS011;28369;44.046;23.014;2023-05-29T11:30:18;8.45;;;3.97;;
42724;SDS011;28369;44.046;23.014;2023-05-29T11:32:45;5.22;;;3.60;;
42724;SDS011;28369;44.046;23.014;2023-05-29T11:35:14;5.25;;;3.60;;
42724;SDS011;28369;44.046;23.014;2023-05-29T11:37:42;4.35;;;3.53;;
42724;SDS011;28369;44.046;23.014;2023-05-29T11:40:11;3.83;;;3.13;;
42724;SDS011;28369;44.046;23.014;2023-05-29T11:42:44;4.22;;;3.55;;
42724;SDS011;28369;44.046;23.014;2023-05-29T11:45:14;7.80;;;3.60;;
42724;SDS011;28369;44.046;23.014;2023-05-29T11:48:05;4.82;;;3.65;;
42724;SDS011;28369;44.046;23.014;2023-05-29T11:50:31;6.28;;;3.90;;
42724;SDS011;28369;44.046;23.014;2023-05-29T11:52:58;8.15;;;3.53;;
42724;SDS011;28369;44.046;23.014;2023-05-29T11:55:24;5.70;;;3.15;;
42724;SDS011;28369;44.046;23.014;2023-05-29T11:57:51;4.93;;;3.15;;
42724;SDS011;28369;44.046;23.014;2023-05-29T12:00:21;6.78;;;3.83;;
42724;SDS011;28369;44.046;23.014;2023-05-29T12:02:47;6.38;;;4.25;;
42724;SDS011;28369;44.046;23.014;2023-05-29T12:05:15;6.43;;;3.75;;
42724;SDS011;28369;44.046;23.014;2023-05-29T12:07:51;6.18;;;3.80;;
42724;SDS011;28369;44.046;23.014;2023-05-29T12:10:18;4.03;;;3.40;;
42724;SDS011;28369;44.046;23.014;2023-05-29T12:15:14;6.18;;;3.40;;
42724;SDS011;28369;44.046;23.014;2023-05-29T12:17:40;3.50;;;3.00;;
42724;SDS011;28369;44.046;23.014;2023-05-29T12:20:07;8.07;;;2.85;;
42724;SDS011;28369;44.046;23.014;2023-05-29T12:22:34;5.63;;;3.30;;
42724;SDS011;28369;44.046;23.014;2023-05-29T12:27:33;9.55;;;3.13;;
42724;SDS011;28369;44.046;23.014;2023-05-29T12:30:02;5.55;;;3.45;;
42724;SDS011;28369;44.046;23.014;2023-05-29T12:32:38;5.22;;;3.40;;
42724;SDS011;28369;44.046;23.014;2023-05-29T12:37:57;5.78;;;3.03;;
42724;SDS011;28369;44.046;23.014;2023-05-29T12:40:32;6.38;;;3.53;;
42724;SDS011;28369;44.046;23.014;2023-05-29T12:43:07;5.63;;;2.97;;
42724;SDS011;28369;44.046;23.014;2023-05-29T12:45:36;11.30;;;3.60;;
42724;SDS011;28369;44.046;23.014;2023-05-29T12:48:05;4.28;;;2.92;;
42724;SDS011;28369;44.046;23.014;2023-05-29T12:50:35;3.35;;;3.08;;
42724;SDS011;28369;44.046;23.014;2023-05-29T12:53:07;5.95;;;3.35;;
42724;SDS011;28369;44.046;23.014;2023-05-29T12:55:38;4.93;;;3.15;;
42724;SDS011;28369;44.046;23.014;2023-05-29T12:58:07;8.20;;;3.75;;
42724;SDS011;28369;44.046;23.014;2023-05-29T13:00:35;4.80;;;3.33;;
42724;SDS011;28369;44.046;23.014;2023-05-29T13:03:01;4.65;;;3.42;;
42724;SDS011;28369;44.046;23.014;2023-05-29T13:05:27;6.07;;;3.03;;
42724;SDS011;28369;44.046;23.014;2023-05-29T13:07:53;6.85;;;3.05;;
42724;SDS011;28369;44.046;23.014;2023-05-29T13:10:19;6.95;;;3.25;;
42724;SDS011;28369;44.046;23.014;2023-05-29T13:12:46;4.90;;;3.00;;
42724;SDS011;28369;44.046;23.014;2023-05-29T13:15:13;4.43;;;3.30;;
42724;SDS011;28369;44.046;23.014;2023-05-29T13:17:39;5.50;;;3.10;;
42724;SDS011;28369;44.046;23.014;2023-05-29T13:20:07;6.88;;;3.60;;
42724;SDS011;28369;44.046;23.014;2023-05-29T13:22:34;6.82;;;3.47;;
42724;SDS011;28369;44.046;23.014;2023-05-29T13:25:00;7.10;;;3.40;;
42724;SDS011;28369;44.046;23.014;2023-05-29T13:27:26;3.60;;;3.22;;
42724;SDS011;28369;44.046;23.014;2023-05-29T13:29:52;4.07;;;3.47;;
42724;SDS011;28369;44.046;23.014;2023-05-29T13:32:18;5.63;;;3.33;;
42724;SDS011;28369;44.046;23.014;2023-05-29T13:34:44;6.60;;;3.13;;
42724;SDS011;28369;44.046;23.014;2023-05-29T13:37:10;6.50;;;3.33;;
42724;SDS011;28369;44.046;23.014;2023-05-29T13:39:36;7.95;;;3.45;;
42724;SDS011;28369;44.046;23.014;2023-05-29T13:42:01;9.25;;;3.53;;
42724;SDS011;28369;44.046;23.014;2023-05-29T13:44:27;10.90;;;3.40;;
42724;SDS011;28369;44.046;23.014;2023-05-29T13:46:52;11.88;;;3.33;;
42724;SDS011;28369;44.046;23.014;2023-05-29T13:49:18;4.45;;;3.03;;
42724;SDS011;28369;44.046;23.014;2023-05-29T13:51:44;8.60;;;3.35;;
42724;SDS011;28369;44.046;23.014;2023-05-29T13:54:11;3.72;;;3.15;;
42724;SDS011;28369;44.046;23.014;2023-05-29T13:56:37;4.53;;;3.63;;
42724;SDS011;28369;44.046;23.014;2023-05-29T13:59:02;5.80;;;3.60;;
42724;SDS011;28369;44.046;23.014;2023-05-29T14:01:31;5.25;;;3.35;;
42724;SDS011;28369;44.046;23.014;2023-05-29T14:03:57;6.13;;;3.22;;
42724;SDS011;28369;44.046;23.014;2023-05-29T14:06:22;5.80;;;3.15;;
42724;SDS011;28369;44.046;23.014;2023-05-29T14:08:48;9.02;;;3.50;;
42724;SDS011;28369;44.046;23.014;2023-05-29T14:11:13;5.57;;;3.42;;
42724;SDS011;28369;44.046;23.014;2023-05-29T14:13:39;5.13;;;3.25;;
42724;SDS011;28369;44.046;23.014;2023-05-29T14:16:04;65.70;;;38.42;;
42724;SDS011;28369;44.046;23.014;2023-05-29T14:18:30;11.40;;;3.90;;
42724;SDS011;28369;44.046;23.014;2023-05-29T14:20:55;4.40;;;2.97;;
42724;SDS011;28369;44.046;23.014;2023-05-29T14:23:21;5.65;;;3.13;;
42724;SDS011;28369;44.046;23.014;2023-05-29T14:25:46;6.75;;;3.47;;
42724;SDS011;28369;44.046;23.014;2023-05-29T14:28:12;7.53;;;4.10;;
42724;SDS011;28369;44.046;23.014;2023-05-29T14:30:38;4.18;;;3.15;;
42724;SDS011;28369;44.046;23.014;2023-05-29T14:33:03;5.05;;;2.90;;
42724;SDS011;28369;44.046;23.014;2023-05-29T14:35:29;4.93;;;3.00;;
42724;SDS011;28369;44.046;23.014;2023-05-29T14:37:58;5.97;;;3.10;;
42724;SDS011;28369;44.046;23.014;2023-05-29T14:40:23;5.05;;;2.95;;
42724;SDS011;28369;44.046;23.014;2023-05-29T14:42:48;9.45;;;3.83;;
42724;SDS011;28369;44.046;23.014;2023-05-29T14:45:14;4.88;;;3.20;;
42724;SDS011;28369;44.046;23.014;2023-05-29T14:47:41;4.72;;;2.95;;
42724;SDS011;28369;44.046;23.014;2023-05-29T14:50:06;8.32;;;3.50;;
42724;SDS011;28369;44.046;23.014;2023-05-29T14:52:33;4.80;;;3.13;;
42724;SDS011;28369;44.046;23.014;2023-05-29T14:55:00;6.63;;;3.45;;
42724;SDS011;28369;44.046;23.014;2023-05-29T14:57:26;5.65;;;3.08;;
42724;SDS011;28369;44.046;23.014;2023-05-29T14:59:52;6.25;;;3.30;;
42724;SDS011;28369;44.046;23.014;2023-05-29T15:02:17;6.30;;;3.60;;
42724;SDS011;28369;44.046;23.014;2023-05-29T15:04:43;7.57;;;3.15;;
42724;SDS011;28369;44.046;23.014;2023-05-29T15:07:08;7.78;;;3.00;;
42724;SDS011;28369;44.046;23.014;2023-05-29T15:09:34;6.53;;;3.08;;